City Of Chicago — WDC2646 — position and weather

sailwx.info

Track history (hours):
 
Tides and Currents Weather Stations Pressure Air Temp Water Temp Dewpoint Dewpoint Depression Visibility Wind Speed Wind Dir Waves Ship Positions

City Of Chicago

Owner: Kirby Inland Marine LP, Houston, TX. More information available from US FCC via Universal Licensing System and Coast Guard Vessel Documentation Center.

Last reported at 2017-Nov-18 01:01 UTC. Time now 2017-Nov-18 01:09 UTC.
Position N 32°18' W 090°55'.

Length 293 m; draft 2.7 m.

Type: . MMSI: 366995960.

Date/timePositionNaut miles runAvg speedWind from/ knotsBaromVisibWave heightAir tempDewpointWater temp
2017-Nov-18 01:01N 32°18' W 090°55'3 5.6
2017-Nov-18 00:30N 32°21' W 090°56'1 1.1
2017-Nov-18 00:00N 32°21' W 090°56'0 0.0
2017-Nov-17 23:30N 32°21' W 090°56'0 0.0
2017-Nov-17 23:00N 32°21' W 090°56'0 0.3
2017-Nov-17 22:30N 32°21' W 090°56'3 5.4
2017-Nov-17 22:00N 32°21' W 090°59'4 8.2
2017-Nov-17 21:30N 32°25' W 091°00'4 8.9
2017-Nov-17 21:00N 32°27' W 091°05'4 7.9
2017-Nov-17 20:30N 32°30' W 091°07'4 8.2
2017-Nov-17 20:00N 32°35' W 091°07'  
Track history (hours):
 
Tides and Currents Weather Stations Pressure Air Temp Water Temp Dewpoint Dewpoint Depression Visibility Wind Speed Wind Dir Waves Ship Positions

City Of Chicago

Owner: Kirby Inland Marine LP, Houston, TX. More information available from US FCC via Universal Licensing System and Coast Guard Vessel Documentation Center.

Last reported at 2017-Nov-18 01:01 UTC. Time now 2017-Nov-18 01:09 UTC.
Position N 32°18' W 090°55'.

Length 293 m; draft 2.7 m.

Type: . MMSI: 366995960.

Date/timePositionNaut miles runAvg speedWind from/ knotsBaromVisibWave heightAir tempDewpointWater temp
2017-Nov-18 01:01N 32°18' W 090°55'3 5.6
2017-Nov-18 00:30N 32°21' W 090°56'1 1.1
2017-Nov-18 00:00N 32°21' W 090°56'0 0.0
2017-Nov-17 23:30N 32°21' W 090°56'0 0.0
2017-Nov-17 23:00N 32°21' W 090°56'0 0.3
2017-Nov-17 22:30N 32°21' W 090°56'3 5.4
2017-Nov-17 22:00N 32°21' W 090°59'4 8.2
2017-Nov-17 21:30N 32°25' W 091°00'4 8.9
2017-Nov-17 21:00N 32°27' W 091°05'4 7.9
2017-Nov-17 20:30N 32°30' W 091°07'4 8.2
2017-Nov-17 20:00N 32°35' W 091°07'  

Dump ship's entire track history